sensor_id;sensor_type;location;lat;lon;timestamp;P1;durP1;ratioP1;P2;durP2;ratioP2
72379;SDS011;60354;47.798;12.472;2023-08-31T00:01:41;1.63;;;1.40;;
72379;SDS011;60354;47.798;12.472;2023-08-31T00:04:06;2.08;;;1.40;;
72379;SDS011;60354;47.798;12.472;2023-08-31T00:06:39;1.40;;;1.30;;
72379;SDS011;60354;47.798;12.472;2023-08-31T00:09:05;1.60;;;1.13;;
72379;SDS011;60354;47.798;12.472;2023-08-31T00:11:34;1.73;;;1.40;;
72379;SDS011;60354;47.798;12.472;2023-08-31T00:14:00;3.92;;;1.50;;
72379;SDS011;60354;47.798;12.472;2023-08-31T00:16:26;2.17;;;1.25;;
72379;SDS011;60354;47.798;12.472;2023-08-31T00:18:52;1.77;;;1.00;;
72379;SDS011;60354;47.798;12.472;2023-08-31T00:21:18;2.45;;;1.33;;
72379;SDS011;60354;47.798;12.472;2023-08-31T00:23:43;1.90;;;1.17;;
72379;SDS011;60354;47.798;12.472;2023-08-31T00:26:09;1.20;;;1.10;;
72379;SDS011;60354;47.798;12.472;2023-08-31T00:28:35;1.83;;;1.30;;
72379;SDS011;60354;47.798;12.472;2023-08-31T00:31:01;1.45;;;1.30;;
72379;SDS011;60354;47.798;12.472;2023-08-31T00:33:30;2.40;;;1.30;;
72379;SDS011;60354;47.798;12.472;2023-08-31T00:35:56;5.70;;;1.33;;
72379;SDS011;60354;47.798;12.472;2023-08-31T00:38:26;4.32;;;1.30;;
72379;SDS011;60354;47.798;12.472;2023-08-31T00:40:52;3.97;;;1.15;;
72379;SDS011;60354;47.798;12.472;2023-08-31T00:43:19;3.38;;;1.20;;
72379;SDS011;60354;47.798;12.472;2023-08-31T00:45:45;2.47;;;1.20;;
72379;SDS011;60354;47.798;12.472;2023-08-31T00:48:16;2.75;;;1.40;;
72379;SDS011;60354;47.798;12.472;2023-08-31T00:50:42;2.05;;;1.15;;
72379;SDS011;60354;47.798;12.472;2023-08-31T00:53:11;2.78;;;1.20;;
72379;SDS011;60354;47.798;12.472;2023-08-31T00:55:37;1.38;;;1.27;;
72379;SDS011;60354;47.798;12.472;2023-08-31T00:58:05;1.20;;;1.08;;
72379;SDS011;60354;47.798;12.472;2023-08-31T01:05:58;1.60;;;1.27;;
72379;SDS011;60354;47.798;12.472;2023-08-31T01:11:08;1.77;;;1.20;;
72379;SDS011;60354;47.798;12.472;2023-08-31T01:13:41;2.13;;;1.30;;
72379;SDS011;60354;47.798;12.472;2023-08-31T01:16:13;2.25;;;1.23;;
72379;SDS011;60354;47.798;12.472;2023-08-31T01:18:40;1.70;;;1.30;;
72379;SDS011;60354;47.798;12.472;2023-08-31T01:24:02;1.88;;;1.40;;
72379;SDS011;60354;47.798;12.472;2023-08-31T01:26:27;1.63;;;1.20;;
72379;SDS011;60354;47.798;12.472;2023-08-31T01:28:54;1.35;;;1.10;;
72379;SDS011;60354;47.798;12.472;2023-08-31T01:31:20;1.63;;;1.30;;
72379;SDS011;60354;47.798;12.472;2023-08-31T01:33:47;3.42;;;1.58;;
72379;SDS011;60354;47.798;12.472;2023-08-31T01:36:32;3.42;;;1.25;;
72379;SDS011;60354;47.798;12.472;2023-08-31T01:41:46;2.45;;;1.10;;
72379;SDS011;60354;47.798;12.472;2023-08-31T01:44:16;1.50;;;1.13;;
72379;SDS011;60354;47.798;12.472;2023-08-31T01:46:45;2.58;;;1.10;;
72379;SDS011;60354;47.798;12.472;2023-08-31T01:49:11;2.28;;;1.40;;
72379;SDS011;60354;47.798;12.472;2023-08-31T01:51:37;1.73;;;1.25;;
72379;SDS011;60354;47.798;12.472;2023-08-31T01:54:05;1.55;;;1.20;;
72379;SDS011;60354;47.798;12.472;2023-08-31T01:56:31;1.75;;;1.20;;
72379;SDS011;60354;47.798;12.472;2023-08-31T01:58:57;2.33;;;1.20;;
72379;SDS011;60354;47.798;12.472;2023-08-31T02:01:23;1.90;;;1.17;;
72379;SDS011;60354;47.798;12.472;2023-08-31T02:03:49;1.35;;;1.10;;
72379;SDS011;60354;47.798;12.472;2023-08-31T02:06:14;2.13;;;1.40;;
72379;SDS011;60354;47.798;12.472;2023-08-31T02:08:39;1.40;;;1.20;;
72379;SDS011;60354;47.798;12.472;2023-08-31T02:11:05;2.40;;;1.30;;
72379;SDS011;60354;47.798;12.472;2023-08-31T02:13:30;2.88;;;1.50;;
72379;SDS011;60354;47.798;12.472;2023-08-31T02:15:56;1.50;;;1.25;;
72379;SDS011;60354;47.798;12.472;2023-08-31T02:18:21;3.50;;;1.30;;
72379;SDS011;60354;47.798;12.472;2023-08-31T02:20:47;2.92;;;1.30;;
72379;SDS011;60354;47.798;12.472;2023-08-31T02:23:13;2.22;;;1.20;;
72379;SDS011;60354;47.798;12.472;2023-08-31T02:25:38;1.80;;;1.40;;
72379;SDS011;60354;47.798;12.472;2023-08-31T02:28:04;1.88;;;1.30;;
72379;SDS011;60354;47.798;12.472;2023-08-31T02:30:30;1.45;;;1.20;;
72379;SDS011;60354;47.798;12.472;2023-08-31T02:32:56;6.00;;;1.27;;
72379;SDS011;60354;47.798;12.472;2023-08-31T02:35:22;2.60;;;1.30;;
72379;SDS011;60354;47.798;12.472;2023-08-31T02:37:47;1.60;;;1.10;;
72379;SDS011;60354;47.798;12.472;2023-08-31T02:40:13;6.25;;;1.40;;
72379;SDS011;60354;47.798;12.472;2023-08-31T02:42:39;2.45;;;1.30;;
72379;SDS011;60354;47.798;12.472;2023-08-31T02:45:04;1.40;;;1.20;;
72379;SDS011;60354;47.798;12.472;2023-08-31T02:47:31;2.47;;;1.40;;
72379;SDS011;60354;47.798;12.472;2023-08-31T02:49:56;2.70;;;1.40;;
72379;SDS011;60354;47.798;12.472;2023-08-31T02:52:22;1.50;;;1.20;;
72379;SDS011;60354;47.798;12.472;2023-08-31T02:54:47;1.45;;;1.30;;
72379;SDS011;60354;47.798;12.472;2023-08-31T02:57:13;4.40;;;1.23;;
72379;SDS011;60354;47.798;12.472;2023-08-31T02:59:40;2.85;;;1.40;;
72379;SDS011;60354;47.798;12.472;2023-08-31T03:02:07;2.05;;;1.20;;
72379;SDS011;60354;47.798;12.472;2023-08-31T03:04:33;1.60;;;1.30;;
72379;SDS011;60354;47.798;12.472;2023-08-31T03:06:59;1.75;;;1.30;;
72379;SDS011;60354;47.798;12.472;2023-08-31T03:09:25;2.90;;;1.30;;
72379;SDS011;60354;47.798;12.472;2023-08-31T03:11:51;2.28;;;1.50;;
72379;SDS011;60354;47.798;12.472;2023-08-31T03:14:16;1.95;;;1.30;;
72379;SDS011;60354;47.798;12.472;2023-08-31T03:16:41;4.88;;;1.38;;
72379;SDS011;60354;47.798;12.472;2023-08-31T03:19:07;2.85;;;1.40;;
72379;SDS011;60354;47.798;12.472;2023-08-31T03:21:32;2.10;;;1.20;;
72379;SDS011;60354;47.798;12.472;2023-08-31T03:23:59;3.35;;;1.35;;
72379;SDS011;60354;47.798;12.472;2023-08-31T03:26:25;1.45;;;1.30;;
72379;SDS011;60354;47.798;12.472;2023-08-31T03:28:50;2.22;;;1.30;;
72379;SDS011;60354;47.798;12.472;2023-08-31T03:31:16;1.30;;;1.17;;
72379;SDS011;60354;47.798;12.472;2023-08-31T03:33:41;2.45;;;1.30;;
72379;SDS011;60354;47.798;12.472;2023-08-31T03:36:08;1.73;;;1.35;;
72379;SDS011;60354;47.798;12.472;2023-08-31T03:38:33;1.80;;;1.17;;
72379;SDS011;60354;47.798;12.472;2023-08-31T03:41:03;3.17;;;1.40;;
72379;SDS011;60354;47.798;12.472;2023-08-31T03:43:28;2.53;;;1.30;;
72379;SDS011;60354;47.798;12.472;2023-08-31T03:45:54;2.70;;;1.40;;
72379;SDS011;60354;47.798;12.472;2023-08-31T03:48:23;1.73;;;1.40;;
72379;SDS011;60354;47.798;12.472;2023-08-31T03:50:53;2.10;;;1.40;;
72379;SDS011;60354;47.798;12.472;2023-08-31T03:53:21;1.80;;;1.33;;
72379;SDS011;60354;47.798;12.472;2023-08-31T03:55:47;1.52;;;1.20;;
72379;SDS011;60354;47.798;12.472;2023-08-31T03:58:14;1.65;;;1.25;;
72379;SDS011;60354;47.798;12.472;2023-08-31T04:00:42;2.80;;;1.48;;
72379;SDS011;60354;47.798;12.472;2023-08-31T04:03:08;2.22;;;1.50;;
72379;SDS011;60354;47.798;12.472;2023-08-31T04:05:35;1.90;;;1.50;;
72379;SDS011;60354;47.798;12.472;2023-08-31T04:08:02;1.70;;;1.50;;
72379;SDS011;60354;47.798;12.472;2023-08-31T04:10:27;1.60;;;1.40;;
72379;SDS011;60354;47.798;12.472;2023-08-31T04:12:55;3.67;;;1.63;;
72379;SDS011;60354;47.798;12.472;2023-08-31T04:15:21;2.35;;;1.50;;
72379;SDS011;60354;47.798;12.472;2023-08-31T04:17:46;2.22;;;1.50;;
72379;SDS011;60354;47.798;12.472;2023-08-31T04:20:12;2.58;;;1.65;;
72379;SDS011;60354;47.798;12.472;2023-08-31T04:22:37;4.97;;;1.80;;
72379;SDS011;60354;47.798;12.472;2023-08-31T04:25:03;3.47;;;1.70;;
72379;SDS011;60354;47.798;12.472;2023-08-31T04:27:29;3.67;;;1.90;;
72379;SDS011;60354;47.798;12.472;2023-08-31T04:30:01;3.00;;;1.88;;
72379;SDS011;60354;47.798;12.472;2023-08-31T04:32:27;2.20;;;1.70;;
72379;SDS011;60354;47.798;12.472;2023-08-31T04:34:56;2.50;;;1.98;;
72379;SDS011;60354;47.798;12.472;2023-08-31T04:37:21;4.00;;;1.83;;
72379;SDS011;60354;47.798;12.472;2023-08-31T04:39:47;4.03;;;2.00;;
72379;SDS011;60354;47.798;12.472;2023-08-31T04:42:13;3.13;;;2.00;;
72379;SDS011;60354;47.798;12.472;2023-08-31T04:44:38;4.07;;;2.00;;
72379;SDS011;60354;47.798;12.472;2023-08-31T04:47:04;2.58;;;1.80;;
72379;SDS011;60354;47.798;12.472;2023-08-31T04:49:29;2.47;;;1.90;;
72379;SDS011;60354;47.798;12.472;2023-08-31T04:51:56;2.95;;;2.00;;
72379;SDS011;60354;47.798;12.472;2023-08-31T04:54:21;2.28;;;1.92;;
72379;SDS011;60354;47.798;12.472;2023-08-31T04:56:47;2.67;;;2.00;;
72379;SDS011;60354;47.798;12.472;2023-08-31T04:59:12;3.70;;;2.20;;
72379;SDS011;60354;47.798;12.472;2023-08-31T05:01:38;2.85;;;1.88;;
72379;SDS011;60354;47.798;12.472;2023-08-31T05:04:03;2.10;;;1.80;;
72379;SDS011;60354;47.798;12.472;2023-08-31T05:06:29;2.88;;;2.03;;
72379;SDS011;60354;47.798;12.472;2023-08-31T05:08:54;2.92;;;1.92;;
72379;SDS011;60354;47.798;12.472;2023-08-31T05:11:20;2.45;;;1.70;;
72379;SDS011;60354;47.798;12.472;2023-08-31T05:13:46;2.70;;;1.90;;
72379;SDS011;60354;47.798;12.472;2023-08-31T05:16:12;2.38;;;1.80;;
72379;SDS011;60354;47.798;12.472;2023-08-31T05:18:38;2.25;;;1.80;;
72379;SDS011;60354;47.798;12.472;2023-08-31T05:21:05;2.97;;;1.77;;
72379;SDS011;60354;47.798;12.472;2023-08-31T05:23:31;2.58;;;1.92;;
72379;SDS011;60354;47.798;12.472;2023-08-31T05:25:57;7.32;;;2.15;;
72379;SDS011;60354;47.798;12.472;2023-08-31T05:28:23;6.18;;;2.03;;
72379;SDS011;60354;47.798;12.472;2023-08-31T05:30:49;3.42;;;2.00;;
72379;SDS011;60354;47.798;12.472;2023-08-31T05:33:18;3.30;;;2.50;;
72379;SDS011;60354;47.798;12.472;2023-08-31T05:35:45;3.22;;;2.08;;
72379;SDS011;60354;47.798;12.472;2023-08-31T05:38:10;3.13;;;2.10;;
72379;SDS011;60354;47.798;12.472;2023-08-31T05:40:36;2.33;;;1.90;;
72379;SDS011;60354;47.798;12.472;2023-08-31T05:43:02;2.42;;;1.80;;
72379;SDS011;60354;47.798;12.472;2023-08-31T05:45:31;3.65;;;2.15;;
72379;SDS011;60354;47.798;12.472;2023-08-31T05:47:58;2.30;;;1.60;;
72379;SDS011;60354;47.798;12.472;2023-08-31T05:50:23;2.22;;;1.70;;
72379;SDS011;60354;47.798;12.472;2023-08-31T05:52:49;2.20;;;1.60;;
72379;SDS011;60354;47.798;12.472;2023-08-31T05:55:14;3.95;;;1.60;;
72379;SDS011;60354;47.798;12.472;2023-08-31T05:57:40;3.10;;;1.80;;
72379;SDS011;60354;47.798;12.472;2023-08-31T06:00:05;3.78;;;1.80;;
72379;SDS011;60354;47.798;12.472;2023-08-31T06:02:43;2.42;;;1.80;;
72379;SDS011;60354;47.798;12.472;2023-08-31T06:05:12;2.42;;;1.55;;
72379;SDS011;60354;47.798;12.472;2023-08-31T06:07:38;1.85;;;1.48;;
72379;SDS011;60354;47.798;12.472;2023-08-31T06:10:05;1.70;;;1.50;;
72379;SDS011;60354;47.798;12.472;2023-08-31T06:12:30;3.58;;;1.52;;
72379;SDS011;60354;47.798;12.472;2023-08-31T06:14:56;3.50;;;1.55;;
72379;SDS011;60354;47.798;12.472;2023-08-31T06:17:22;2.47;;;1.63;;
72379;SDS011;60354;47.798;12.472;2023-08-31T06:19:47;3.47;;;1.58;;
72379;SDS011;60354;47.798;12.472;2023-08-31T06:22:13;3.75;;;1.80;;
72379;SDS011;60354;47.798;12.472;2023-08-31T06:24:38;4.28;;;1.67;;
72379;SDS011;60354;47.798;12.472;2023-08-31T06:27:04;2.35;;;1.50;;
72379;SDS011;60354;47.798;12.472;2023-08-31T06:29:29;3.25;;;1.60;;
72379;SDS011;60354;47.798;12.472;2023-08-31T06:31:55;2.72;;;1.77;;
72379;SDS011;60354;47.798;12.472;2023-08-31T06:34:20;3.15;;;1.70;;
72379;SDS011;60354;47.798;12.472;2023-08-31T06:36:46;2.70;;;1.70;;
72379;SDS011;60354;47.798;12.472;2023-08-31T06:39:11;3.38;;;1.80;;
72379;SDS011;60354;47.798;12.472;2023-08-31T06:41:37;2.70;;;1.73;;
72379;SDS011;60354;47.798;12.472;2023-08-31T06:44:02;3.35;;;1.60;;
72379;SDS011;60354;47.798;12.472;2023-08-31T06:46:29;4.22;;;1.55;;
72379;SDS011;60354;47.798;12.472;2023-08-31T06:48:58;2.17;;;1.50;;
72379;SDS011;60354;47.798;12.472;2023-08-31T06:51:24;3.45;;;1.50;;
72379;SDS011;60354;47.798;12.472;2023-08-31T06:53:50;3.10;;;1.30;;
72379;SDS011;60354;47.798;12.472;2023-08-31T06:56:15;1.63;;;1.30;;
72379;SDS011;60354;47.798;12.472;2023-08-31T06:58:40;2.22;;;1.40;;
72379;SDS011;60354;47.798;12.472;2023-08-31T07:01:06;3.85;;;1.60;;
72379;SDS011;60354;47.798;12.472;2023-08-31T07:03:31;2.58;;;1.90;;
72379;SDS011;60354;47.798;12.472;2023-08-31T07:05:57;3.67;;;1.92;;
72379;SDS011;60354;47.798;12.472;2023-08-31T07:08:22;2.80;;;1.50;;
72379;SDS011;60354;47.798;12.472;2023-08-31T07:10:51;3.45;;;1.50;;
72379;SDS011;60354;47.798;12.472;2023-08-31T07:13:17;2.63;;;1.50;;
72379;SDS011;60354;47.798;12.472;2023-08-31T07:15:42;2.17;;;1.40;;
72379;SDS011;60354;47.798;12.472;2023-08-31T07:18:08;2.38;;;1.50;;
72379;SDS011;60354;47.798;12.472;2023-08-31T07:20:34;2.55;;;1.40;;
72379;SDS011;60354;47.798;12.472;2023-08-31T07:22:59;1.80;;;1.40;;
72379;SDS011;60354;47.798;12.472;2023-08-31T07:25:25;3.47;;;1.50;;
72379;SDS011;60354;47.798;12.472;2023-08-31T07:27:50;2.28;;;1.48;;
72379;SDS011;60354;47.798;12.472;2023-08-31T07:30:16;2.28;;;1.48;;
72379;SDS011;60354;47.798;12.472;2023-08-31T07:32:41;2.28;;;1.65;;
72379;SDS011;60354;47.798;12.472;2023-08-31T07:35:07;2.08;;;1.40;;
72379;SDS011;60354;47.798;12.472;2023-08-31T07:37:33;3.33;;;1.38;;
72379;SDS011;60354;47.798;12.472;2023-08-31T07:39:58;2.33;;;1.50;;
72379;SDS011;60354;47.798;12.472;2023-08-31T07:42:24;3.35;;;1.40;;
72379;SDS011;60354;47.798;12.472;2023-08-31T07:44:49;6.10;;;2.30;;
72379;SDS011;60354;47.798;12.472;2023-08-31T07:47:15;2.60;;;1.45;;
72379;SDS011;60354;47.798;12.472;2023-08-31T07:49:40;2.65;;;1.70;;
72379;SDS011;60354;47.798;12.472;2023-08-31T07:52:06;5.72;;;3.10;;
72379;SDS011;60354;47.798;12.472;2023-08-31T07:54:32;6.05;;;3.40;;
72379;SDS011;60354;47.798;12.472;2023-08-31T07:56:57;5.45;;;3.00;;
72379;SDS011;60354;47.798;12.472;2023-08-31T07:59:23;6.88;;;2.30;;
72379;SDS011;60354;47.798;12.472;2023-08-31T08:01:48;3.60;;;2.22;;
72379;SDS011;60354;47.798;12.472;2023-08-31T08:04:13;2.90;;;1.80;;
72379;SDS011;60354;47.798;12.472;2023-08-31T08:06:39;4.15;;;1.80;;
72379;SDS011;60354;47.798;12.472;2023-08-31T08:09:05;4.13;;;1.70;;
72379;SDS011;60354;47.798;12.472;2023-08-31T08:11:31;2.83;;;1.90;;
72379;SDS011;60354;47.798;12.472;2023-08-31T08:13:56;2.53;;;1.70;;
72379;SDS011;60354;47.798;12.472;2023-08-31T08:16:22;2.75;;;1.70;;
72379;SDS011;60354;47.798;12.472;2023-08-31T08:18:47;2.05;;;1.50;;
72379;SDS011;60354;47.798;12.472;2023-08-31T08:21:13;4.47;;;1.80;;
72379;SDS011;60354;47.798;12.472;2023-08-31T08:23:38;2.55;;;1.70;;
72379;SDS011;60354;47.798;12.472;2023-08-31T08:26:04;5.28;;;1.90;;
72379;SDS011;60354;47.798;12.472;2023-08-31T08:28:29;4.60;;;1.65;;
72379;SDS011;60354;47.798;12.472;2023-08-31T08:30:55;2.88;;;1.98;;
72379;SDS011;60354;47.798;12.472;2023-08-31T08:33:21;4.75;;;1.80;;
72379;SDS011;60354;47.798;12.472;2023-08-31T08:35:46;2.28;;;1.50;;
72379;SDS011;60354;47.798;12.472;2023-08-31T08:38:12;5.03;;;1.70;;
72379;SDS011;60354;47.798;12.472;2023-08-31T08:40:37;2.42;;;1.50;;
72379;SDS011;60354;47.798;12.472;2023-08-31T08:43:06;2.95;;;1.88;;
72379;SDS011;60354;47.798;12.472;2023-08-31T08:45:36;3.15;;;1.80;;
72379;SDS011;60354;47.798;12.472;2023-08-31T08:48:07;3.58;;;1.80;;
72379;SDS011;60354;47.798;12.472;2023-08-31T08:50:33;7.72;;;2.38;;
72379;SDS011;60354;47.798;12.472;2023-08-31T08:53:00;4.00;;;1.90;;
72379;SDS011;60354;47.798;12.472;2023-08-31T08:55:29;2.25;;;1.45;;
72379;SDS011;60354;47.798;12.472;2023-08-31T08:57:55;2.08;;;1.20;;
72379;SDS011;60354;47.798;12.472;2023-08-31T09:00:21;2.17;;;1.20;;
72379;SDS011;60354;47.798;12.472;2023-08-31T09:02:46;3.97;;;2.33;;
72379;SDS011;60354;47.798;12.472;2023-08-31T09:05:12;9.23;;;4.72;;
72379;SDS011;60354;47.798;12.472;2023-08-31T09:07:38;3.33;;;1.88;;
72379;SDS011;60354;47.798;12.472;2023-08-31T09:10:04;45.38;;;20.40;;
72379;SDS011;60354;47.798;12.472;2023-08-31T09:12:30;79.00;;;38.42;;
72379;SDS011;60354;47.798;12.472;2023-08-31T09:15:02;94.72;;;51.28;;
72379;SDS011;60354;47.798;12.472;2023-08-31T09:17:41;10.88;;;6.10;;
72379;SDS011;60354;47.798;12.472;2023-08-31T09:20:09;4.55;;;2.80;;
72379;SDS011;60354;47.798;12.472;2023-08-31T09:22:35;5.60;;;3.85;;
72379;SDS011;60354;47.798;12.472;2023-08-31T09:25:01;6.00;;;3.30;;
72379;SDS011;60354;47.798;12.472;2023-08-31T09:27:28;12.07;;;3.10;;
72379;SDS011;60354;47.798;12.472;2023-08-31T09:29:56;3.67;;;1.60;;
72379;SDS011;60354;47.798;12.472;2023-08-31T09:32:23;2.92;;;1.10;;
72379;SDS011;60354;47.798;12.472;2023-08-31T09:34:48;5.32;;;2.53;;
72379;SDS011;60354;47.798;12.472;2023-08-31T09:37:15;6.95;;;2.47;;
72379;SDS011;60354;47.798;12.472;2023-08-31T09:39:41;2.10;;;1.60;;
72379;SDS011;60354;47.798;12.472;2023-08-31T09:42:07;5.35;;;1.98;;
72379;SDS011;60354;47.798;12.472;2023-08-31T09:44:32;2.60;;;1.50;;
72379;SDS011;60354;47.798;12.472;2023-08-31T09:46:58;2.63;;;1.35;;
72379;SDS011;60354;47.798;12.472;2023-08-31T09:49:24;3.35;;;1.20;;
72379;SDS011;60354;47.798;12.472;2023-08-31T09:51:50;1.50;;;1.25;;
72379;SDS011;60354;47.798;12.472;2023-08-31T09:54:17;1.60;;;1.20;;
72379;SDS011;60354;47.798;12.472;2023-08-31T09:56:44;1.83;;;1.20;;
72379;SDS011;60354;47.798;12.472;2023-08-31T09:59:11;1.60;;;1.10;;
72379;SDS011;60354;47.798;12.472;2023-08-31T10:01:38;2.00;;;1.10;;
72379;SDS011;60354;47.798;12.472;2023-08-31T10:04:04;2.95;;;1.33;;
72379;SDS011;60354;47.798;12.472;2023-08-31T10:06:33;1.45;;;1.02;;
72379;SDS011;60354;47.798;12.472;2023-08-31T10:09:00;1.42;;;1.20;;
72379;SDS011;60354;47.798;12.472;2023-08-31T10:11:26;1.27;;;1.00;;
72379;SDS011;60354;47.798;12.472;2023-08-31T10:13:52;2.13;;;1.10;;
72379;SDS011;60354;47.798;12.472;2023-08-31T10:16:20;2.08;;;1.25;;
72379;SDS011;60354;47.798;12.472;2023-08-31T10:18:46;2.55;;;1.27;;
72379;SDS011;60354;47.798;12.472;2023-08-31T10:21:12;8.13;;;1.70;;
72379;SDS011;60354;47.798;12.472;2023-08-31T10:23:45;1.85;;;1.30;;
72379;SDS011;60354;47.798;12.472;2023-08-31T10:26:11;1.60;;;1.20;;
72379;SDS011;60354;47.798;12.472;2023-08-31T10:28:41;6.10;;;1.20;;
72379;SDS011;60354;47.798;12.472;2023-08-31T10:31:15;2.10;;;1.40;;
72379;SDS011;60354;47.798;12.472;2023-08-31T10:33:47;3.97;;;1.30;;
72379;SDS011;60354;47.798;12.472;2023-08-31T10:36:20;2.30;;;1.30;;
72379;SDS011;60354;47.798;12.472;2023-08-31T10:41:21;1.98;;;1.20;;
72379;SDS011;60354;47.798;12.472;2023-08-31T10:43:47;1.98;;;1.27;;
72379;SDS011;60354;47.798;12.472;2023-08-31T10:51:30;2.45;;;1.20;;
72379;SDS011;60354;47.798;12.472;2023-08-31T10:54:13;1.80;;;1.25;;
72379;SDS011;60354;47.798;12.472;2023-08-31T10:57:06;1.63;;;1.10;;
72379;SDS011;60354;47.798;12.472;2023-08-31T11:02:35;1.40;;;1.10;;
72379;SDS011;60354;47.798;12.472;2023-08-31T11:07:40;3.03;;;1.30;;
72379;SDS011;60354;47.798;12.472;2023-08-31T11:10:22;1.63;;;1.10;;
72379;SDS011;60354;47.798;12.472;2023-08-31T11:12:49;1.60;;;1.30;;
72379;SDS011;60354;47.798;12.472;2023-08-31T11:15:22;1.80;;;1.20;;
72379;SDS011;60354;47.798;12.472;2023-08-31T11:20:19;1.55;;;1.10;;
72379;SDS011;60354;47.798;12.472;2023-08-31T11:22:47;2.80;;;1.30;;
72379;SDS011;60354;47.798;12.472;2023-08-31T11:28:19;2.20;;;1.20;;
72379;SDS011;60354;47.798;12.472;2023-08-31T11:30:39;2.67;;;1.42;;
72379;SDS011;60354;47.798;12.472;2023-08-31T11:33:08;1.15;;;1.00;;
72379;SDS011;60354;47.798;12.472;2023-08-31T11:35:37;1.65;;;1.10;;
72379;SDS011;60354;47.798;12.472;2023-08-31T11:38:08;1.73;;;1.10;;
72379;SDS011;60354;47.798;12.472;2023-08-31T11:40:35;1.98;;;1.27;;
72379;SDS011;60354;47.798;12.472;2023-08-31T11:43:00;1.48;;;1.10;;
72379;SDS011;60354;47.798;12.472;2023-08-31T11:45:28;3.50;;;1.10;;
72379;SDS011;60354;47.798;12.472;2023-08-31T11:47:55;5.13;;;1.20;;
72379;SDS011;60354;47.798;12.472;2023-08-31T11:50:22;1.73;;;1.02;;
72379;SDS011;60354;47.798;12.472;2023-08-31T11:52:49;2.38;;;1.20;;
72379;SDS011;60354;47.798;12.472;2023-08-31T11:55:16;1.77;;;1.15;;
72379;SDS011;60354;47.798;12.472;2023-08-31T11:57:49;1.48;;;1.10;;
72379;SDS011;60354;47.798;12.472;2023-08-31T12:00:18;2.30;;;1.20;;
72379;SDS011;60354;47.798;12.472;2023-08-31T12:02:59;1.90;;;1.20;;
72379;SDS011;60354;47.798;12.472;2023-08-31T12:05:28;2.25;;;1.30;;
72379;SDS011;60354;47.798;12.472;2023-08-31T12:07:56;1.77;;;1.20;;
72379;SDS011;60354;47.798;12.472;2023-08-31T12:10:23;1.77;;;1.20;;
72379;SDS011;60354;47.798;12.472;2023-08-31T12:12:50;1.88;;;1.30;;
72379;SDS011;60354;47.798;12.472;2023-08-31T12:15:18;2.33;;;1.30;;
72379;SDS011;60354;47.798;12.472;2023-08-31T12:17:43;2.40;;;1.40;;
72379;SDS011;60354;47.798;12.472;2023-08-31T12:20:11;1.83;;;1.10;;
72379;SDS011;60354;47.798;12.472;2023-08-31T12:22:37;2.17;;;1.23;;
72379;SDS011;60354;47.798;12.472;2023-08-31T12:25:03;1.70;;;1.17;;
72379;SDS011;60354;47.798;12.472;2023-08-31T12:27:29;1.55;;;1.13;;
72379;SDS011;60354;47.798;12.472;2023-08-31T12:29:55;2.60;;;1.17;;
72379;SDS011;60354;47.798;12.472;2023-08-31T12:32:22;2.80;;;1.10;;
72379;SDS011;60354;47.798;12.472;2023-08-31T12:34:48;2.13;;;1.20;;
72379;SDS011;60354;47.798;12.472;2023-08-31T12:37:13;2.03;;;1.20;;
72379;SDS011;60354;47.798;12.472;2023-08-31T12:39:39;2.22;;;1.30;;
72379;SDS011;60354;47.798;12.472;2023-08-31T12:42:07;1.83;;;1.27;;
72379;SDS011;60354;47.798;12.472;2023-08-31T12:44:32;1.95;;;1.20;;
72379;SDS011;60354;47.798;12.472;2023-08-31T12:46:58;1.40;;;1.20;;
72379;SDS011;60354;47.798;12.472;2023-08-31T12:49:23;3.00;;;1.60;;
72379;SDS011;60354;47.798;12.472;2023-08-31T12:51:49;2.55;;;1.35;;
72379;SDS011;60354;47.798;12.472;2023-08-31T12:54:15;1.65;;;1.23;;
72379;SDS011;60354;47.798;12.472;2023-08-31T12:56:41;3.65;;;1.25;;
72379;SDS011;60354;47.798;12.472;2023-08-31T12:59:07;2.55;;;1.40;;
72379;SDS011;60354;47.798;12.472;2023-08-31T13:01:33;2.20;;;1.30;;
72379;SDS011;60354;47.798;12.472;2023-08-31T13:03:58;1.67;;;1.30;;
72379;SDS011;60354;47.798;12.472;2023-08-31T13:06:24;2.15;;;1.40;;
72379;SDS011;60354;47.798;12.472;2023-08-31T13:08:51;2.05;;;1.17;;
72379;SDS011;60354;47.798;12.472;2023-08-31T13:11:17;3.13;;;1.40;;
72379;SDS011;60354;47.798;12.472;2023-08-31T13:13:48;1.90;;;1.30;;
72379;SDS011;60354;47.798;12.472;2023-08-31T13:16:14;2.28;;;1.23;;
72379;SDS011;60354;47.798;12.472;2023-08-31T13:18:39;1.73;;;1.25;;
72379;SDS011;60354;47.798;12.472;2023-08-31T13:21:05;2.72;;;1.30;;
72379;SDS011;60354;47.798;12.472;2023-08-31T13:23:33;3.38;;;1.50;;
72379;SDS011;60354;47.798;12.472;2023-08-31T13:25:59;1.92;;;1.40;;
72379;SDS011;60354;47.798;12.472;2023-08-31T13:28:24;2.22;;;1.30;;
72379;SDS011;60354;47.798;12.472;2023-08-31T13:30:54;5.13;;;1.50;;
72379;SDS011;60354;47.798;12.472;2023-08-31T13:33:22;3.08;;;1.30;;
72379;SDS011;60354;47.798;12.472;2023-08-31T13:35:47;3.25;;;1.42;;
72379;SDS011;60354;47.798;12.472;2023-08-31T13:38:13;5.63;;;1.60;;
72379;SDS011;60354;47.798;12.472;2023-08-31T13:40:38;2.47;;;1.50;;
72379;SDS011;60354;47.798;12.472;2023-08-31T13:43:04;2.00;;;1.33;;
72379;SDS011;60354;47.798;12.472;2023-08-31T13:45:30;3.03;;;1.50;;
72379;SDS011;60354;47.798;12.472;2023-08-31T13:47:57;1.67;;;1.23;;
72379;SDS011;60354;47.798;12.472;2023-08-31T13:50:24;4.38;;;1.60;;
72379;SDS011;60354;47.798;12.472;2023-08-31T13:52:50;3.90;;;1.50;;
72379;SDS011;60354;47.798;12.472;2023-08-31T13:55:15;1.98;;;1.30;;
72379;SDS011;60354;47.798;12.472;2023-08-31T13:57:41;2.95;;;1.40;;
72379;SDS011;60354;47.798;12.472;2023-08-31T14:00:08;2.10;;;1.35;;
72379;SDS011;60354;47.798;12.472;2023-08-31T14:02:38;5.25;;;1.30;;
72379;SDS011;60354;47.798;12.472;2023-08-31T14:05:07;2.55;;;1.50;;
72379;SDS011;60354;47.798;12.472;2023-08-31T14:07:34;2.00;;;1.30;;
72379;SDS011;60354;47.798;12.472;2023-08-31T14:10:00;4.30;;;1.33;;
72379;SDS011;60354;47.798;12.472;2023-08-31T14:12:25;2.22;;;1.48;;
72379;SDS011;60354;47.798;12.472;2023-08-31T14:14:51;2.38;;;1.40;;
72379;SDS011;60354;47.798;12.472;2023-08-31T14:17:17;3.88;;;1.70;;
72379;SDS011;60354;47.798;12.472;2023-08-31T14:19:43;3.38;;;1.40;;
72379;SDS011;60354;47.798;12.472;2023-08-31T14:22:09;2.65;;;1.40;;
72379;SDS011;60354;47.798;12.472;2023-08-31T14:24:35;2.30;;;1.45;;
72379;SDS011;60354;47.798;12.472;2023-08-31T14:27:02;3.00;;;1.30;;
72379;SDS011;60354;47.798;12.472;2023-08-31T14:29:28;2.78;;;1.40;;
72379;SDS011;60354;47.798;12.472;2023-08-31T14:31:55;4.63;;;1.63;;
72379;SDS011;60354;47.798;12.472;2023-08-31T14:34:21;3.08;;;1.60;;
72379;SDS011;60354;47.798;12.472;2023-08-31T14:36:46;4.78;;;1.58;;
72379;SDS011;60354;47.798;12.472;2023-08-31T14:39:12;2.80;;;1.35;;
72379;SDS011;60354;47.798;12.472;2023-08-31T14:41:37;4.13;;;1.70;;
72379;SDS011;60354;47.798;12.472;2023-08-31T14:44:03;3.80;;;1.48;;
72379;SDS011;60354;47.798;12.472;2023-08-31T14:46:29;2.53;;;1.70;;
72379;SDS011;60354;47.798;12.472;2023-08-31T14:48:54;3.40;;;1.75;;
72379;SDS011;60354;47.798;12.472;2023-08-31T14:51:20;3.30;;;1.63;;
72379;SDS011;60354;47.798;12.472;2023-08-31T14:53:45;4.85;;;1.60;;
72379;SDS011;60354;47.798;12.472;2023-08-31T14:56:10;3.47;;;1.80;;
72379;SDS011;60354;47.798;12.472;2023-08-31T14:58:36;4.60;;;1.77;;
72379;SDS011;60354;47.798;12.472;2023-08-31T15:01:01;5.32;;;1.70;;
72379;SDS011;60354;47.798;12.472;2023-08-31T15:03:27;4.40;;;1.60;;